Time;durP1;ratioP1;P1;durP2;ratioP2;P2;SDS_P1;SDS_P2;PMS_P1;PMS_P2;Temp;Humidity;BMP_temperature;BMP_pressure;BME280_temperature;BME280_humidity;BME280_pressure;Samples;Min_cycle;Max_cycle;Signal;HPM_P1;HPM_P2
2023/12/30 00:01:44;;;;;;;13.60;2.33;;;;;;;9.29;83.31;100736.19;3613045;39;20053;-65
2023/12/30 00:04:10;;;;;;;8.68;2.00;;;;;;;9.30;82.50;100741.50;3609743;39;20082;-65
2023/12/30 00:06:35;;;;;;;11.15;2.22;;;;;;;9.25;82.58;100742.72;3613590;39;20058;-65
2023/12/30 00:09:01;;;;;;;9.60;2.08;;;;;;;9.24;83.16;100741.84;3611502;39;20063;-65
2023/12/30 00:11:27;;;;;;;9.00;2.10;;;;;;;9.23;82.54;100745.50;3614007;39;20294;-65
2023/12/30 00:13:52;;;;;;;9.80;2.08;;;;;;;9.21;83.19;100742.03;3614331;39;20055;-65
2023/12/30 00:16:18;;;;;;;7.47;1.70;;;;;;;9.17;83.27;100753.03;3610839;39;20438;-65
2023/12/30 00:18:43;;;;;;;8.82;1.92;;;;;;;9.15;82.47;100752.25;3614080;39;20055;-65
2023/12/30 00:21:09;;;;;;;10.93;2.10;;;;;;;9.11;83.46;100750.69;3610501;39;20047;-65
2023/12/30 00:23:39;;;;;;;9.50;2.25;;;;;;;9.12;82.75;100755.09;3613069;39;20353;-65
2023/12/30 00:26:04;;;;;;;9.85;1.98;;;;;;;9.12;83.35;100757.78;3613145;39;20048;-65
2023/12/30 00:28:30;;;;;;;6.78;2.17;;;;;;;9.11;82.93;100766.78;3612394;39;20197;-65
2023/12/30 00:30:55;;;;;;;9.32;2.20;;;;;;;9.11;82.83;100766.78;3612659;39;20076;-66
2023/12/30 00:33:21;;;;;;;8.57;2.00;;;;;;;9.11;82.93;100769.47;3612621;39;20085;-65
2023/12/30 00:35:46;;;;;;;10.20;2.00;;;;;;;9.07;83.16;100772.31;3611859;39;20095;-65
2023/12/30 00:38:12;;;;;;;8.13;1.98;;;;;;;9.07;83.48;100777.69;3605944;39;20054;-65
2023/12/30 00:40:38;;;;;;;9.15;2.38;;;;;;;9.06;83.44;100775.94;3610582;39;20307;-65
2023/12/30 00:43:03;;;;;;;13.85;2.20;;;;;;;9.06;82.91;100786.66;3610578;39;20066;-65
2023/12/30 00:45:29;;;;;;;7.20;1.90;;;;;;;9.06;84.04;100781.28;3602989;39;20102;-65
2023/12/30 00:47:56;;;;;;;10.27;2.28;;;;;;;9.07;83.29;100775.00;3612317;39;20043;-65
2023/12/30 00:50:21;;;;;;;10.18;2.38;;;;;;;9.06;83.59;100773.25;3612304;39;20092;-65
2023/12/30 00:52:47;;;;;;;11.02;2.10;;;;;;;9.05;83.78;100787.63;3611380;39;20059;-65
2023/12/30 00:55:12;;;;;;;12.48;2.42;;;;;;;9.07;83.52;100782.19;3614871;39;20120;-65
2023/12/30 00:57:38;;;;;;;7.75;2.25;;;;;;;9.04;83.61;100787.72;3612183;39;20054;-65
2023/12/30 01:00:05;;;;;;;11.50;2.50;;;;;;;9.03;83.60;100789.50;3611332;39;20123;-66
2023/12/30 01:02:30;;;;;;;8.55;2.10;;;;;;;9.01;83.76;100796.78;3607796;39;20406;-65
2023/12/30 01:04:56;;;;;;;12.73;2.10;;;;;;;8.99;84.19;100801.38;3612531;39;20054;-66
2023/12/30 01:07:21;;;;;;;9.30;1.80;;;;;;;8.98;84.13;100801.47;3612591;39;20055;-65
2023/12/30 01:09:47;;;;;;;14.32;2.40;;;;;;;8.98;83.50;100799.66;3613937;39;20066;-65
2023/12/30 01:12:12;;;;;;;11.57;2.20;;;;;;;8.96;83.31;100796.16;3609475;39;20527;-63
2023/12/30 01:14:38;;;;;;;10.07;2.15;;;;;;;8.99;83.55;100795.13;3611844;39;20308;-63
2023/12/30 01:17:04;;;;;;;10.55;2.17;;;;;;;9.01;83.84;100799.47;3611554;39;20061;-64
2023/12/30 01:19:29;;;;;;;14.40;2.17;;;;;;;9.04;83.88;100807.34;3611943;39;20059;-63
2023/12/30 01:21:55;;;;;;;14.23;2.70;;;;;;;9.08;84.12;100805.34;3610943;39;20057;-63
2023/12/30 01:24:20;;;;;;;9.82;2.60;;;;;;;9.05;83.97;100802.84;3611123;39;20089;-64
2023/12/30 01:26:46;;;;;;;16.33;2.33;;;;;;;9.09;84.74;100812.44;3612431;39;20055;-63
2023/12/30 01:29:11;;;;;;;12.50;2.58;;;;;;;9.15;84.12;100820.16;3608587;39;20054;-63
2023/12/30 01:31:37;;;;;;;15.77;2.67;;;;;;;9.20;84.11;100828.81;3611847;39;20074;-63
2023/12/30 01:34:03;;;;;;;12.63;2.65;;;;;;;9.22;84.61;100828.72;3609824;39;20391;-63
2023/12/30 01:36:28;;;;;;;11.27;2.35;;;;;;;9.20;84.72;100831.50;3613635;39;20055;-64
2023/12/30 01:38:54;;;;;;;10.38;2.35;;;;;;;9.18;84.67;100835.22;3610227;39;20293;-64
2023/12/30 01:41:19;;;;;;;12.18;2.25;;;;;;;9.24;84.06;100837.53;3612261;39;20494;-63
2023/12/30 01:43:45;;;;;;;8.95;2.50;;;;;;;9.05;84.42;100802.84;3613660;39;20085;-63
2023/12/30 01:46:12;;;;;;;12.95;2.47;;;;;;;9.22;84.19;100840.28;3612368;39;20143;-63
2023/12/30 01:48:39;;;;;;;9.93;2.65;;;;;;;9.22;84.70;100834.06;3614474;39;20466;-64
2023/12/30 01:51:08;;;;;;;8.00;2.20;;;;;;;9.21;84.46;100832.34;3614228;39;20082;-63
2023/12/30 01:53:41;;;;;;;14.85;2.80;;;;;;;9.20;84.26;100839.53;3612546;39;20081;-63
2023/12/30 01:56:08;;;;;;;9.52;2.50;;;;;;;9.18;84.56;100841.44;3611295;39;20058;-63
2023/12/30 01:58:35;;;;;;;11.27;2.67;;;;;;;9.15;84.34;100838.06;3613256;39;20273;-63
2023/12/30 02:01:04;;;;;;;10.15;2.03;;;;;;;9.13;84.10;100838.13;3612927;39;20050;-63
2023/12/30 02:03:30;;;;;;;11.43;2.42;;;;;;;9.11;84.67;100836.50;3612026;39;20067;-63
2023/12/30 02:05:55;;;;;;;10.25;2.00;;;;;;;9.09;84.46;100843.75;3613437;39;20059;-63
2023/12/30 02:08:21;;;;;;;12.20;2.40;;;;;;;9.07;84.45;100844.72;3611413;39;20059;-63
2023/12/30 02:10:47;;;;;;;11.75;4.43;;;;;;;9.06;83.72;100855.50;3610778;39;20053;-63
2023/12/30 02:13:12;;;;;;;10.32;3.42;;;;;;;9.06;84.54;100856.38;3611433;39;20085;-63
2023/12/30 02:15:38;;;;;;;14.63;2.42;;;;;;;9.05;84.94;100851.09;3612838;39;20051;-63
2023/12/30 02:18:04;;;;;;;11.00;2.70;;;;;;;9.09;84.41;100854.47;3602288;39;20065;-63
2023/12/30 02:20:32;;;;;;;6.30;1.80;;;;;;;9.13;84.63;100850.66;3610631;39;20087;-63
2023/12/30 02:22:58;;;;;;;12.95;2.70;;;;;;;9.15;84.96;100849.63;3612932;39;20104;-63
2023/12/30 02:25:23;;;;;;;11.63;2.30;;;;;;;9.15;85.15;100854.16;3611065;39;20395;-63
2023/12/30 02:27:49;;;;;;;11.30;2.45;;;;;;;9.20;85.23;100868.19;3612263;39;20055;-63
2023/12/30 02:30:15;;;;;;;8.45;2.38;;;;;;;9.20;84.89;100882.44;3610221;39;20061;-64
2023/12/30 02:32:41;;;;;;;7.82;2.00;;;;;;;9.09;83.71;100865.22;3602631;39;20376;-64
2023/12/30 02:35:08;;;;;;;13.63;2.40;;;;;;;8.96;84.99;100870.38;3610456;39;20065;-63
2023/12/30 02:37:33;;;;;;;11.13;2.38;;;;;;;8.89;86.61;100875.22;3612036;39;20070;-63
2023/12/30 02:39:59;;;;;;;7.63;2.20;;;;;;;8.85;88.46;100879.00;3612144;39;20062;-63
2023/12/30 02:42:24;;;;;;;11.82;2.80;;;;;;;8.80;89.38;100871.19;3611782;39;20047;-63
2023/12/30 02:44:52;;;;;;;12.55;3.13;;;;;;;8.78;91.14;100872.22;3612259;39;20055;-63
2023/12/30 02:47:17;;;;;;;15.00;2.97;;;;;;;8.76;91.79;100884.88;3611730;39;20050;-63
2023/12/30 02:49:45;;;;;;;12.20;2.80;;;;;;;8.71;92.18;100889.59;3611889;39;20398;-63
2023/12/30 02:52:11;;;;;;;13.73;3.25;;;;;;;8.70;92.66;100887.88;3608496;39;20047;-63
2023/12/30 02:54:37;;;;;;;14.77;2.92;;;;;;;8.67;93.15;100888.88;3612364;39;20055;-63
2023/12/30 02:57:04;;;;;;;14.18;3.10;;;;;;;8.66;93.13;100883.59;3611707;39;20391;-63
2023/12/30 02:59:32;;;;;;;13.45;2.47;;;;;;;8.32;93.28;100832.63;3611731;39;20051;-63
2023/12/30 03:01:58;;;;;;;14.88;3.03;;;;;;;8.59;93.66;100875.91;3611470;39;20053;-63
2023/12/30 03:04:24;;;;;;;10.07;2.15;;;;;;;8.56;93.41;100876.06;3610849;39;20098;-63
2023/12/30 03:06:49;;;;;;;11.60;2.90;;;;;;;8.54;93.47;100888.66;3612109;39;20081;-63
2023/12/30 03:09:15;;;;;;;13.80;2.45;;;;;;;8.47;93.26;100895.31;3613784;39;20055;-63
2023/12/30 03:11:42;;;;;;;15.02;2.88;;;;;;;8.27;93.78;100865.97;3614881;39;20377;-63
2023/12/30 03:14:08;;;;;;;10.85;2.72;;;;;;;8.49;93.58;100879.13;3610553;39;20086;-63
2023/12/30 03:16:35;;;;;;;13.02;3.17;;;;;;;8.45;93.44;100891.81;3614420;39;20059;-63
2023/12/30 03:19:00;;;;;;;11.55;2.65;;;;;;;8.44;93.39;100890.09;3614358;39;20057;-63
2023/12/30 03:21:26;;;;;;;11.90;2.75;;;;;;;8.43;92.56;100893.72;3609503;39;20047;-63
2023/12/30 03:23:52;;;;;;;15.20;2.47;;;;;;;8.43;92.90;100896.38;3612108;39;20073;-63
2023/12/30 03:26:17;;;;;;;13.25;2.53;;;;;;;8.41;93.17;100903.66;3608345;39;20058;-64
2023/12/30 03:28:43;;;;;;;13.15;2.13;;;;;;;8.41;93.26;100900.97;3600339;39;20050;-63
2023/12/30 03:31:23;;;;;;;10.68;2.58;;;;;;;8.30;93.53;100881.88;3609662;39;20047;-63
2023/12/30 03:33:49;;;;;;;14.80;2.22;;;;;;;8.41;92.65;100895.63;3610893;39;20301;-64
2023/12/30 03:36:15;;;;;;;14.05;3.28;;;;;;;8.37;93.29;100886.84;3609801;39;20057;-63
2023/12/30 03:38:40;;;;;;;11.93;2.35;;;;;;;8.39;92.92;100894.81;3611841;39;20295;-63
2023/12/30 03:41:06;;;;;;;12.75;2.83;;;;;;;8.42;92.16;100891.13;3611005;39;20383;-63
2023/12/30 03:43:31;;;;;;;13.68;2.58;;;;;;;8.36;92.59;100886.91;3610838;39;20050;-64
2023/12/30 03:45:57;;;;;;;11.60;2.55;;;;;;;8.36;92.25;100897.63;3611917;39;20061;-63
2023/12/30 03:48:23;;;;;;;15.45;3.00;;;;;;;8.35;92.32;100898.59;3609755;39;20055;-66
2023/12/30 03:50:48;;;;;;;11.10;2.33;;;;;;;8.33;92.45;100900.47;3612040;39;20369;-63
2023/12/30 03:53:14;;;;;;;13.13;2.17;;;;;;;8.32;92.90;100901.41;3609150;39;20408;-63
2023/12/30 03:55:39;;;;;;;8.23;1.95;;;;;;;8.31;92.03;100905.03;3610751;39;20055;-63
2023/12/30 03:58:05;;;;;;;15.05;2.05;;;;;;;8.31;92.16;100907.72;3611679;39;20058;-63
2023/12/30 04:00:31;;;;;;;13.73;2.72;;;;;;;8.27;92.40;100903.44;3609977;39;20043;-65
2023/12/30 04:02:56;;;;;;;10.75;3.13;;;;;;;8.28;91.76;100894.50;3614228;39;20311;-65
2023/12/30 04:05:22;;;;;;;9.95;2.85;;;;;;;8.26;92.38;100896.38;3612841;39;20049;-65
2023/12/30 04:07:48;;;;;;;16.92;2.63;;;;;;;8.22;92.22;100900.16;3612752;39;20043;-64
2023/12/30 04:10:15;;;;;;;14.45;2.55;;;;;;;8.22;92.32;100890.31;3611642;39;20050;-65
2023/12/30 04:12:41;;;;;;;15.55;2.58;;;;;;;8.14;92.23;100892.50;3612169;39;20043;-65
2023/12/30 04:15:08;;;;;;;13.68;2.05;;;;;;;8.14;92.55;100892.50;3613040;39;20116;-65
2023/12/30 04:17:34;;;;;;;9.48;2.15;;;;;;;8.16;92.46;100892.44;3611979;39;20522;-65
2023/12/30 04:19:59;;;;;;;10.23;2.13;;;;;;;8.12;92.41;100900.63;3610380;39;20128;-65
2023/12/30 04:22:27;;;;;;;14.60;2.75;;;;;;;8.01;92.25;100876.19;3610178;39;20047;-64
2023/12/30 04:24:53;;;;;;;14.82;2.65;;;;;;;8.08;92.63;100884.78;3612818;39;21487;-65
2023/12/30 04:27:18;;;;;;;10.43;1.90;;;;;;;8.10;92.56;100891.78;3610553;39;20058;-65
2023/12/30 04:29:44;;;;;;;8.65;2.28;;;;;;;8.07;92.62;100896.44;3609680;39;20319;-65
2023/12/30 04:32:09;;;;;;;9.50;2.40;;;;;;;8.07;92.00;100901.78;3612730;39;20053;-65
2023/12/30 04:34:35;;;;;;;11.18;2.00;;;;;;;8.04;93.08;100896.59;3610530;39;20074;-65
2023/12/30 04:37:02;;;;;;;11.45;2.13;;;;;;;8.03;92.89;100895.72;3612961;39;20398;-63
2023/12/30 04:39:28;;;;;;;13.90;2.80;;;;;;;8.04;92.49;100897.44;3611447;39;20061;-64
2023/12/30 04:41:53;;;;;;;12.77;2.38;;;;;;;8.04;93.47;100909.97;3611885;39;20063;-63
2023/12/30 04:44:19;;;;;;;12.18;2.50;;;;;;;8.02;93.19;100903.81;3610135;39;20054;-63
2023/12/30 04:46:44;;;;;;;10.65;2.63;;;;;;;8.02;93.01;100899.31;3611458;39;20058;-63
2023/12/30 04:49:11;;;;;;;16.95;2.20;;;;;;;8.01;93.83;100897.59;3612303;39;20054;-64
2023/12/30 04:51:37;;;;;;;14.07;2.13;;;;;;;8.00;93.37;100901.22;3611183;39;20149;-63
2023/12/30 04:54:04;;;;;;;12.50;2.22;;;;;;;8.04;93.19;100908.16;3612036;39;20303;-62
2023/12/30 04:56:29;;;;;;;15.68;2.42;;;;;;;8.08;93.78;100904.38;3610609;39;20376;-63
2023/12/30 04:58:56;;;;;;;16.27;2.67;;;;;;;8.06;93.35;100906.28;3612048;39;20043;-62
2023/12/30 05:01:22;;;;;;;12.05;2.42;;;;;;;8.03;93.12;100914.47;3610730;39;20458;-63
2023/12/30 05:03:47;;;;;;;18.60;2.95;;;;;;;8.00;93.89;100911.94;3611234;39;20055;-62
2023/12/30 05:06:21;;;;;;;14.90;2.45;;;;;;;8.06;94.32;100922.34;3612067;39;20051;-62
2023/12/30 05:08:47;;;;;;;;;;;;;;;8.03;93.58;100933.19;3612376;39;20055;-63
2023/12/30 05:11:13;;;;;;;11.05;2.50;;;;;;;8.03;94.40;100932.34;3611104;39;19935;-62
2023/12/30 05:13:39;;;;;;;15.25;2.85;;;;;;;8.02;94.56;100930.59;3611534;39;20066;-63
2023/12/30 05:16:06;;;;;;;15.35;2.50;;;;;;;8.01;94.29;100932.41;3613932;39;20054;-63
2023/12/30 05:18:31;;;;;;;15.90;2.63;;;;;;;8.00;94.11;100928.00;3613342;39;20445;-62
2023/12/30 05:20:57;;;;;;;14.73;2.58;;;;;;;8.01;94.69;100937.75;3613416;39;20063;-63
2023/12/30 05:23:22;;;;;;;15.65;2.80;;;;;;;7.96;94.20;100931.78;3612522;39;20483;-63
2023/12/30 05:25:48;;;;;;;15.57;2.80;;;;;;;7.98;94.06;100940.59;3611130;39;20059;-62
2023/12/30 05:28:14;;;;;;;11.60;2.50;;;;;;;7.97;94.13;100949.56;3613557;39;20051;-63
2023/12/30 05:30:40;;;;;;;19.52;3.15;;;;;;;7.97;94.93;100952.25;3613663;39;20405;-63
2023/12/30 05:33:06;;;;;;;12.85;2.92;;;;;;;7.96;94.14;100949.63;3613381;39;20057;-63
2023/12/30 05:35:33;;;;;;;12.85;2.67;;;;;;;7.67;94.40;100901.97;3612047;39;20427;-63
2023/12/30 05:37:58;;;;;;;11.55;2.65;;;;;;;7.95;94.18;100962.16;3614766;39;20087;-63
2023/12/30 05:40:24;;;;;;;17.23;2.78;;;;;;;7.93;94.35;100948.00;3613476;39;20061;-63
2023/12/30 05:42:50;;;;;;;14.30;3.10;;;;;;;7.92;94.76;100943.56;3611901;39;20140;-63
2023/12/30 05:45:15;;;;;;;14.20;3.08;;;;;;;7.94;94.19;100965.78;3613232;39;20058;-63
2023/12/30 05:47:41;;;;;;;9.10;2.25;;;;;;;7.92;94.45;100954.25;3611864;39;20120;-64
2023/12/30 05:50:07;;;;;;;12.05;2.53;;;;;;;7.90;94.32;100953.50;3613621;39;20055;-63
2023/12/30 05:52:34;;;;;;;12.23;2.75;;;;;;;7.89;93.97;100957.09;3611029;39;20312;-63
2023/12/30 05:54:59;;;;;;;13.70;2.55;;;;;;;7.88;94.66;100960.72;3612636;39;20421;-62
2023/12/30 05:57:26;;;;;;;18.15;2.85;;;;;;;7.87;94.57;100953.66;3612374;39;20058;-63
2023/12/30 05:59:52;;;;;;;12.43;2.53;;;;;;;7.85;94.60;100960.88;3612034;39;20276;-62
2023/12/30 06:02:18;;;;;;;20.80;3.03;;;;;;;7.83;94.47;100968.97;3613135;39;20053;-62
2023/12/30 06:04:43;;;;;;;15.10;2.83;;;;;;;7.80;93.58;100965.56;3612452;39;20055;-63
2023/12/30 06:07:09;;;;;;;18.23;2.65;;;;;;;7.76;93.49;100963.97;3613210;39;20047;-63
2023/12/30 06:09:35;;;;;;;10.60;2.65;;;;;;;7.77;93.63;100963.03;3608448;39;20056;-62
2023/12/30 06:12:00;;;;;;;13.63;2.67;;;;;;;7.74;94.13;100969.41;3612786;39;20054;-62
2023/12/30 06:14:26;;;;;;;15.40;2.90;;;;;;;7.76;94.47;100972.88;3611709;39;20051;-63
2023/12/30 06:16:51;;;;;;;13.95;2.95;;;;;;;7.72;93.67;100965.06;3611591;39;20321;-62
2023/12/30 06:19:17;;;;;;;16.02;2.83;;;;;;;7.73;94.34;100958.78;3602015;39;20386;-62
2023/12/30 06:21:43;;;;;;;13.88;2.67;;;;;;;7.79;94.12;100977.22;3609840;39;20806;-61
2023/12/30 06:24:09;;;;;;;13.20;2.20;;;;;;;7.80;94.14;100979.84;3612598;39;20058;-62
2023/12/30 06:26:39;;;;;;;16.80;4.05;;;;;;;7.78;93.59;100979.03;3611571;39;20062;-63
2023/12/30 06:29:06;;;;;;;15.02;3.22;;;;;;;7.77;93.82;100979.97;3609637;39;20119;-63
2023/12/30 06:31:32;;;;;;;15.48;2.90;;;;;;;7.73;94.01;100982.84;3611466;39;20043;-63
2023/12/30 06:33:58;;;;;;;13.00;2.95;;;;;;;7.75;94.11;100992.56;3612949;39;20144;-63
2023/12/30 06:36:24;;;;;;;12.05;2.35;;;;;;;7.74;93.21;100984.59;3612441;39;20043;-62
2023/12/30 06:38:51;;;;;;;17.55;3.30;;;;;;;7.75;94.03;100987.19;3609208;39;20051;-62
2023/12/30 06:41:19;;;;;;;13.13;2.25;;;;;;;7.77;93.65;100997.81;3612325;39;20083;-62
2023/12/30 06:43:46;;;;;;;13.02;2.72;;;;;;;7.77;93.82;100995.13;3611281;39;20113;-63
2023/12/30 06:46:13;;;;;;;15.98;2.60;;;;;;;7.77;93.13;100995.13;3612761;39;20057;-62
2023/12/30 06:48:38;;;;;;;14.30;2.55;;;;;;;7.73;93.04;100989.06;3611706;39;20059;-62
2023/12/30 06:51:10;;;;;;;14.95;2.63;;;;;;;7.79;93.84;100994.13;3613466;39;20414;-62
2023/12/30 06:53:36;;;;;;;12.30;2.95;;;;;;;7.79;93.71;100994.13;3610867;39;20070;-63
2023/12/30 06:56:02;;;;;;;12.32;2.50;;;;;;;7.80;92.95;100992.31;3611325;39;20368;-63
2023/12/30 06:58:29;;;;;;;9.27;2.00;;;;;;;7.78;93.50;100988.88;3611698;39;20074;-63
2023/12/30 07:00:56;;;;;;;10.77;2.28;;;;;;;7.78;93.53;100988.88;3612073;39;20059;-63
2023/12/30 07:03:22;;;;;;;12.45;2.33;;;;;;;7.72;93.23;100979.31;3611972;39;20054;-63
2023/12/30 07:05:47;;;;;;;16.55;2.60;;;;;;;7.75;93.05;100975.63;3611317;39;20124;-63
2023/12/30 07:08:13;;;;;;;17.77;2.70;;;;;;;7.77;93.45;100979.09;3611408;39;20303;-62
2023/12/30 07:10:39;;;;;;;16.75;2.63;;;;;;;7.79;94.25;100985.25;3608950;39;20103;-63
2023/12/30 07:13:06;;;;;;;11.15;2.20;;;;;;;7.80;93.60;100985.19;3610957;39;20059;-63
2023/12/30 07:15:32;;;;;;;17.98;2.58;;;;;;;7.65;94.09;100970.72;3612384;39;20050;-63
2023/12/30 07:17:59;;;;;;;12.00;2.20;;;;;;;7.83;94.02;101000.19;3611248;39;20284;-63
2023/12/30 07:20:26;;;;;;;11.70;2.50;;;;;;;7.85;93.51;101001.00;3610814;39;20061;-62
2023/12/30 07:22:53;;;;;;;12.82;3.17;;;;;;;7.85;94.24;100998.34;3611766;39;20120;-63
2023/12/30 07:25:19;;;;;;;15.63;2.80;;;;;;;7.78;93.66;100983.53;3611440;39;20117;-63
2023/12/30 07:27:45;;;;;;;11.82;2.40;;;;;;;7.89;93.60;101007.94;3610200;39;20069;-63
2023/12/30 07:30:11;;;;;;;12.18;2.95;;;;;;;7.89;93.86;100999.91;3611462;39;20059;-63
2023/12/30 07:32:37;;;;;;;14.88;2.40;;;;;;;7.86;93.11;101000.06;3609606;39;20404;-63
2023/12/30 07:35:05;;;;;;;15.05;2.38;;;;;;;7.87;93.40;101000.00;3610801;39;20062;-63
2023/12/30 07:37:32;;;;;;;11.98;2.50;;;;;;;7.84;93.17;101008.19;3605703;39;20280;-63
2023/12/30 07:40:00;;;;;;;12.15;2.55;;;;;;;7.83;93.23;101002.88;3610810;39;20039;-63
2023/12/30 07:42:26;;;;;;;17.13;2.72;;;;;;;7.79;94.05;101002.16;3610536;39;20052;-63
2023/12/30 07:44:54;;;;;;;16.17;2.95;;;;;;;7.83;94.15;101008.22;3610249;39;20127;-63
2023/12/30 07:47:20;;;;;;;16.52;3.13;;;;;;;6.58;93.34;100807.31;3612551;39;20043;-63
2023/12/30 07:49:49;;;;;;;15.25;2.70;;;;;;;7.78;93.34;101012.97;3611134;39;20322;-63
2023/12/30 07:52:15;;;;;;;11.23;2.58;;;;;;;7.79;94.38;101003.97;3610396;39;20491;-63
2023/12/30 07:54:40;;;;;;;15.00;2.78;;;;;;;7.78;93.79;101015.63;3609340;39;20048;-64
2023/12/30 07:57:06;;;;;;;11.85;2.25;;;;;;;7.76;93.66;101010.34;3612757;39;20062;-65
2023/12/30 07:59:31;;;;;;;17.13;2.60;;;;;;;7.80;93.87;101021.75;3610804;39;20051;-65
2023/12/30 08:01:57;;;;;;;15.85;2.88;;;;;;;7.81;93.65;101031.53;3610615;39;20379;-64
2023/12/30 08:04:24;;;;;;;16.95;5.28;;;;;;;7.81;94.00;101034.22;3609535;39;20127;-64
2023/12/30 08:06:51;;;;;;;16.77;3.35;;;;;;;7.81;93.73;101039.56;3602459;39;20055;-65
2023/12/30 08:09:17;;;;;;;15.38;3.53;;;;;;;7.80;94.39;101049.41;3610874;39;20357;-64
2023/12/30 08:11:43;;;;;;;19.00;3.13;;;;;;;7.85;94.74;101051.84;3610096;39;20446;-64
2023/12/30 08:14:09;;;;;;;12.85;2.30;;;;;;;7.88;94.26;101051.72;3611564;39;20054;-65
2023/12/30 08:16:36;;;;;;;18.25;3.08;;;;;;;7.93;94.11;101054.16;3609994;39;20127;-65
2023/12/30 08:19:05;;;;;;;16.38;3.33;;;;;;;7.97;94.55;101051.28;3611691;39;20042;-64
2023/12/30 08:21:31;;;;;;;14.68;2.97;;;;;;;8.04;94.15;101054.53;3611167;39;20050;-65
2023/12/30 08:23:58;;;;;;;19.45;5.30;;;;;;;8.05;94.04;101046.41;3610468;39;20058;-64
2023/12/30 08:26:25;;;;;;;11.30;3.35;;;;;;;8.12;93.99;101050.56;3611272;39;20055;-65
2023/12/30 08:28:51;;;;;;;13.25;3.35;;;;;;;8.14;94.09;101045.97;3609835;39;20331;-64
2023/12/30 08:31:18;;;;;;;14.32;2.85;;;;;;;8.21;94.37;101045.69;3608819;39;20051;-64
2023/12/30 08:33:45;;;;;;;14.48;2.55;;;;;;;8.23;94.15;101046.50;3609864;39;20062;-65
2023/12/30 08:36:11;;;;;;;16.52;3.35;;;;;;;8.26;94.09;101049.00;3610364;39;20085;-65
2023/12/30 08:38:36;;;;;;;9.40;2.83;;;;;;;8.29;94.78;101047.06;3609317;39;20387;-65
2023/12/30 08:41:02;;;;;;;17.23;3.13;;;;;;;8.33;94.57;101045.94;3610870;39;21123;-64
2023/12/30 08:43:29;;;;;;;13.63;3.38;;;;;;;8.35;94.32;101037.84;3610190;39;20062;-64
2023/12/30 08:45:54;;;;;;;14.73;3.58;;;;;;;8.39;94.15;101044.81;3612270;39;20051;-64
2023/12/30 08:48:20;;;;;;;17.45;3.00;;;;;;;8.42;94.36;101051.84;3612248;39;20051;-65
2023/12/30 08:50:45;;;;;;;17.55;3.92;;;;;;;8.44;94.38;101050.84;3611303;39;20399;-65
2023/12/30 08:53:11;;;;;;;16.67;3.42;;;;;;;8.46;94.41;101054.28;3611398;39;20070;-64
2023/12/30 08:55:37;;;;;;;14.27;3.20;;;;;;;8.50;93.94;101047.84;3610830;39;20051;-65
2023/12/30 08:58:03;;;;;;;19.75;4.07;;;;;;;8.41;93.82;101028.69;3611036;39;20136;-65
2023/12/30 09:00:29;;;;;;;24.92;4.25;;;;;;;8.56;93.21;101054.69;3610588;39;20090;-65
2023/12/30 09:02:55;;;;;;;17.58;3.10;;;;;;;8.62;92.89;101053.53;3610685;39;20408;-64
2023/12/30 09:05:22;;;;;;;12.07;2.70;;;;;;;8.64;92.93;101051.66;3611472;39;20054;-64
2023/12/30 09:07:51;;;;;;;16.92;3.10;;;;;;;8.44;92.66;101020.50;3609630;39;20395;-64
2023/12/30 09:10:18;;;;;;;15.07;4.25;;;;;;;8.49;92.63;101026.47;3611350;39;20295;-64
2023/12/30 09:12:47;;;;;;;15.88;4.13;;;;;;;8.72;92.94;101057.47;3610636;39;20047;-64
2023/12/30 09:15:12;;;;;;;14.48;3.53;;;;;;;8.76;93.13;101067.13;3611113;39;21052;-64
2023/12/30 09:17:38;;;;;;;15.20;4.20;;;;;;;8.75;92.71;101068.03;3609892;39;20260;-64
2023/12/30 09:20:05;;;;;;;20.48;4.15;;;;;;;8.80;91.78;101077.59;3608487;39;20332;-65
2023/12/30 09:22:31;;;;;;;20.63;4.28;;;;;;;8.84;91.93;101075.63;3611061;39;20063;-64
2023/12/30 09:24:57;;;;;;;13.45;3.50;;;;;;;8.91;90.92;101076.16;3610232;39;20067;-64
2023/12/30 09:27:23;;;;;;;16.35;3.38;;;;;;;8.89;91.27;101076.28;3610533;39;20472;-64
2023/12/30 09:29:49;;;;;;;13.57;4.40;;;;;;;8.92;91.30;101085.97;3610012;39;20074;-64
2023/12/30 09:32:15;;;;;;;16.25;4.00;;;;;;;8.87;91.23;101075.47;3611464;39;20149;-64
2023/12/30 09:34:41;;;;;;;15.98;4.18;;;;;;;8.99;90.98;101088.25;3605877;39;20055;-64
2023/12/30 09:37:06;;;;;;;12.55;3.67;;;;;;;9.02;91.63;101092.59;3611246;39;20059;-65
2023/12/30 09:39:32;;;;;;;16.48;3.67;;;;;;;9.06;91.39;101089.66;3610151;39;20058;-64
2023/12/30 09:41:58;;;;;;;15.05;3.78;;;;;;;9.10;91.71;101086.81;3610593;39;20052;-64
2023/12/30 09:44:25;;;;;;;15.77;3.58;;;;;;;9.10;90.72;101084.16;3610990;39;20127;-64
2023/12/30 09:46:54;;;;;;;25.70;4.20;;;;;;;9.15;91.18;101091.00;3600900;39;20185;-65
2023/12/30 09:49:20;;;;;;;15.75;3.80;;;;;;;9.19;91.10;101097.94;3611859;39;20046;-65
2023/12/30 09:51:46;;;;;;;19.95;4.35;;;;;;;9.22;90.93;101100.47;3610692;39;20387;-64
2023/12/30 09:54:12;;;;;;;18.45;4.45;;;;;;;9.27;91.07;101100.25;3610395;39;20124;-65
2023/12/30 09:56:41;;;;;;;21.20;4.85;;;;;;;9.26;91.07;101088.66;3610246;39;20082;-65
2023/12/30 09:59:07;;;;;;;19.00;5.00;;;;;;;9.34;90.85;101090.94;3611146;39;20049;-65
2023/12/30 10:01:34;;;;;;;15.82;4.82;;;;;;;9.37;90.18;101096.13;3612594;39;20049;-65
2023/12/30 10:04:00;;;;;;;16.13;4.45;;;;;;;9.40;90.26;101092.44;3613313;39;20687;-65
2023/12/30 10:06:25;;;;;;;19.42;4.53;;;;;;;9.26;90.67;101060.94;3613527;39;20050;-65
2023/12/30 10:08:51;;;;;;;14.27;3.80;;;;;;;9.46;89.71;101089.41;3612280;39;20055;-65
2023/12/30 10:11:17;;;;;;;14.93;3.83;;;;;;;9.38;89.75;101062.13;3611055;39;20389;-65
2023/12/30 10:13:44;;;;;;;15.90;5.18;;;;;;;9.35;89.90;101060.44;3612894;39;20058;-65
2023/12/30 10:16:09;;;;;;;18.52;5.10;;;;;;;9.54;89.76;101095.22;3614109;39;20107;-65
2023/12/30 10:18:36;;;;;;;15.63;4.82;;;;;;;9.56;89.64;101100.53;3612428;39;20415;-64
2023/12/30 10:21:04;;;;;;;19.52;5.18;;;;;;;9.61;89.25;101098.44;3614768;39;20368;-64
2023/12/30 10:23:32;;;;;;;18.45;4.63;;;;;;;9.63;90.04;101096.56;3611954;39;20047;-64
2023/12/30 10:26:03;;;;;;;21.33;4.80;;;;;;;9.48;89.76;101077.66;3612492;39;20370;-65
2023/12/30 10:28:30;;;;;;;18.67;4.82;;;;;;;9.72;89.49;101101.44;3610017;39;20058;-65
2023/12/30 10:31:17;;;;;;;14.65;4.30;;;;;;;9.72;89.29;101106.81;3612313;39;20055;-65
2023/12/30 10:33:42;;;;;;;18.35;4.50;;;;;;;9.73;89.70;101104.03;3611835;39;20068;-65
2023/12/30 10:36:10;;;;;;;16.92;4.28;;;;;;;9.69;89.31;101102.47;3610228;39;20315;-65
2023/12/30 10:38:36;;;;;;;14.32;4.47;;;;;;;9.73;89.16;101095.97;3611881;39;20055;-65
2023/12/30 10:41:02;;;;;;;18.63;5.00;;;;;;;9.84;88.46;101110.66;3610629;39;20154;-64
2023/12/30 10:43:28;;;;;;;15.10;4.38;;;;;;;9.81;88.61;101100.94;3612897;39;20046;-64
2023/12/30 10:45:59;;;;;;;15.65;5.43;;;;;;;9.85;89.16;101107.88;3613962;39;20062;-65
2023/12/30 10:48:32;;;;;;;17.05;4.55;;;;;;;9.89;88.80;101104.06;3612943;39;20383;-65
2023/12/30 10:50:59;;;;;;;16.08;3.85;;;;;;;9.89;88.10;101098.69;3612212;39;20051;-65
2023/12/30 10:53:39;;;;;;;19.70;4.03;;;;;;;9.94;88.80;101102.00;3612849;39;20054;-65
2023/12/30 10:56:09;;;;;;;16.58;4.22;;;;;;;9.99;88.98;101091.88;3611932;39;20058;-65
2023/12/30 10:58:39;;;;;;;16.52;3.92;;;;;;;10.00;88.00;101090.94;3611825;39;20059;-65
2023/12/30 11:01:06;;;;;;;17.33;4.10;;;;;;;10.03;88.08;101097.09;3613106;39;20380;-65
2023/12/30 11:03:34;;;;;;;12.75;3.42;;;;;;;10.05;87.60;101087.09;3611126;39;20051;-64
2023/12/30 11:06:36;;;;;;;15.70;4.25;;;;;;;10.07;88.62;101079.84;3612423;39;20333;-65
2023/12/30 11:09:09;;;;;;;14.27;3.78;;;;;;;10.07;87.53;101069.97;3609695;39;20095;-65
2023/12/30 11:11:49;;;;;;;14.38;3.75;;;;;;;10.18;88.47;101077.41;3609767;39;20050;-65
2023/12/30 11:14:15;;;;;;;20.35;7.95;;;;;;;10.21;87.98;101061.13;3612776;39;20115;-65
2023/12/30 11:16:41;;;;;;;18.60;4.70;;;;;;;10.33;86.74;101065.84;3611722;39;20058;-65
2023/12/30 11:19:07;;;;;;;18.63;4.22;;;;;;;10.42;87.39;101069.81;3611815;39;20058;-65
2023/12/30 11:21:42;;;;;;;16.80;4.47;;;;;;;10.51;86.68;101081.88;3612669;39;20067;-65
2023/12/30 11:24:10;;;;;;;17.95;4.95;;;;;;;10.57;86.16;101070.78;3610139;39;20055;-65